createdAt,value
2018-09-11T00:01:28.694Z,47.16
2018-09-11T00:03:58.899Z,46.81
2018-09-11T00:06:29.417Z,47.02
2018-09-11T00:09:00.355Z,47.18
2018-09-11T00:11:30.911Z,46.94
2018-09-11T00:14:01.429Z,46.95
2018-09-11T00:16:31.726Z,47.42
2018-09-11T00:19:02.319Z,47.32
2018-09-11T00:21:33.067Z,47.28
2018-09-11T00:24:04.040Z,47.23
2018-09-11T00:26:34.548Z,47.66
2018-09-11T00:29:05.129Z,47.89
2018-09-11T00:31:35.933Z,47.53
2018-09-11T00:34:06.427Z,47.92
2018-09-11T00:36:36.733Z,48.01
2018-09-11T00:39:08.329Z,47.64
2018-09-11T00:41:38.971Z,48.06
2018-09-11T00:44:10.514Z,47.63
2018-09-11T00:46:41.032Z,47.86
2018-09-11T00:49:11.791Z,47.41
2018-09-11T00:51:42.384Z,47.87
2018-09-11T00:54:13.051Z,47.87
2018-09-11T00:56:43.512Z,47.56
2018-09-11T00:59:14.542Z,47.36
2018-09-11T01:01:44.747Z,47.79
2018-09-11T01:04:15.301Z,47.57
2018-09-11T01:06:46.289Z,47.05
2018-09-11T01:09:16.889Z,46.86
2018-09-11T01:11:47.524Z,47.34
2018-09-11T01:14:18.778Z,46.79
2018-09-11T01:16:49.078Z,46.58
2018-09-11T01:19:19.595Z,46.69
2018-09-11T01:21:50.083Z,46.83
2018-09-11T01:24:20.744Z,46.64
2018-09-11T01:26:51.265Z,46.49
2018-09-11T01:29:22.462Z,46.79
2018-09-11T01:31:53.059Z,47.42
2018-09-11T01:34:23.485Z,47.01
2018-09-11T01:36:54.375Z,47.62
2018-09-11T01:39:25.194Z,47.87
2018-09-11T01:41:55.844Z,47.87
2018-09-11T01:44:26.516Z,47.35
2018-09-11T01:46:56.987Z,47.41
2018-09-11T01:49:27.891Z,47.28
2018-09-11T01:51:58.147Z,47.09
2018-09-11T01:54:28.817Z,47.16
2018-09-11T01:56:59.355Z,46.93
2018-09-11T01:59:29.897Z,47.00
2018-09-11T02:02:00.087Z,47.17
2018-09-11T02:04:30.277Z,47.16
2018-09-11T02:07:00.496Z,46.96
2018-09-11T02:09:30.979Z,46.78
2018-09-11T02:12:01.298Z,46.46
2018-09-11T02:14:31.992Z,47.19
2018-09-11T02:17:02.680Z,46.94
2018-09-11T02:19:33.267Z,47.49
2018-09-11T02:22:04.025Z,47.68
2018-09-11T02:24:34.303Z,47.83
2018-09-11T02:27:05.878Z,47.88
2018-09-11T02:29:36.371Z,48.73
2018-09-11T02:32:06.916Z,49.02
2018-09-11T02:34:37.445Z,49.55
2018-09-11T02:37:07.941Z,50.12
2018-09-11T02:39:38.151Z,49.73
2018-09-11T02:42:08.420Z,49.79
2018-09-11T02:44:38.995Z,49.63
2018-09-11T02:47:13.478Z,49.89
2018-09-11T02:49:44.075Z,49.81
2018-09-11T02:52:14.595Z,50.00
2018-09-11T02:54:45.448Z,49.52
2018-09-11T02:57:15.906Z,49.04
2018-09-11T02:59:46.483Z,49.40
2018-09-11T03:02:17.092Z,48.89
2018-09-11T03:04:47.322Z,49.32
2018-09-11T03:07:17.816Z,49.65
2018-09-11T03:09:48.573Z,49.99
2018-09-11T03:12:19.092Z,49.94
2018-09-11T03:14:49.629Z,50.43
2018-09-11T03:17:20.172Z,50.62
2018-09-11T03:19:50.607Z,50.07
2018-09-11T03:22:20.895Z,50.11
2018-09-11T03:24:51.559Z,50.14
2018-09-11T03:27:22.148Z,49.95
2018-09-11T03:29:52.773Z,50.07
2018-09-11T03:32:23.318Z,50.07
2018-09-11T03:34:54.178Z,50.19
2018-09-11T03:37:25.043Z,50.46
2018-09-11T03:39:56.146Z,50.62
2018-09-11T03:42:26.919Z,50.30
2018-09-11T03:44:57.520Z,50.23
2018-09-11T03:47:28.047Z,50.29
2018-09-11T03:49:58.548Z,50.24
2018-09-11T03:52:29.121Z,50.37
2018-09-11T03:54:59.607Z,50.05
2018-09-11T03:57:30.093Z,50.26
2018-09-11T04:00:00.646Z,50.79
2018-09-11T04:02:32.103Z,50.45
2018-09-11T04:05:02.349Z,51.03
2018-09-11T04:07:32.625Z,50.92
2018-09-11T04:10:03.485Z,50.62
2018-09-11T04:12:34.298Z,51.36
2018-09-11T04:15:05.545Z,51.26
2018-09-11T04:17:42.316Z,51.39
2018-09-11T04:20:12.791Z,51.48
2018-09-11T04:22:44.092Z,51.02
2018-09-11T04:25:14.608Z,51.18
2018-09-11T04:27:51.528Z,50.56
2018-09-11T04:30:22.087Z,50.50
2018-09-11T04:32:52.553Z,50.96
2018-09-11T04:35:23.104Z,50.70
2018-09-11T04:37:53.965Z,50.69
2018-09-11T04:40:24.463Z,51.04
2018-09-11T04:42:55.174Z,50.82
2018-09-11T04:45:25.911Z,50.88
2018-09-11T04:47:56.564Z,50.61
2018-09-11T04:50:27.267Z,50.43
2018-09-11T04:52:57.760Z,51.20
2018-09-11T04:55:29.240Z,50.89
2018-09-11T04:58:00.092Z,50.63
2018-09-11T05:00:30.600Z,50.54
2018-09-11T05:03:01.166Z,50.86
2018-09-11T05:05:31.840Z,50.62
2018-09-11T05:08:02.499Z,50.09
2018-09-11T05:10:33.283Z,50.17
2018-09-11T05:13:03.920Z,50.17
2018-09-11T05:15:34.428Z,49.53
2018-09-11T05:18:04.709Z,49.90
2018-09-11T05:20:34.919Z,49.66
2018-09-11T05:23:05.692Z,49.81
2018-09-11T05:25:35.968Z,49.34
2018-09-11T05:28:06.529Z,49.03
2018-09-11T05:30:37.587Z,49.54
2018-09-11T05:33:08.637Z,49.54
2018-09-11T05:35:38.995Z,49.12
2018-09-11T05:38:10.152Z,48.87
2018-09-11T05:40:40.765Z,49.26
2018-09-11T05:43:11.332Z,49.41
2018-09-11T05:45:41.643Z,48.83
2018-09-11T05:48:11.902Z,49.07
2018-09-11T05:50:42.490Z,49.29
2018-09-11T05:53:13.286Z,48.73
2018-09-11T05:55:43.850Z,48.69
2018-09-11T05:58:14.437Z,48.66
2018-09-11T06:00:45.055Z,47.82
2018-09-11T06:03:15.708Z,47.82
2018-09-11T06:05:46.411Z,48.51
2018-09-11T06:08:17.075Z,48.48
2018-09-11T06:10:47.807Z,47.58
2018-09-11T06:13:19.329Z,47.48
2018-09-11T06:15:50.202Z,47.81
2018-09-11T06:18:21.037Z,47.00
2018-09-11T06:20:52.673Z,47.99
2018-09-11T06:23:31.936Z,47.91
2018-09-11T06:26:02.460Z,47.24
2018-09-11T06:28:33.038Z,47.64
2018-09-11T06:31:03.815Z,47.69
2018-09-11T06:33:35.633Z,47.51
2018-09-11T06:36:06.438Z,47.29
2018-09-11T06:38:37.091Z,47.29
2018-09-11T06:41:07.877Z,46.70
2018-09-11T06:43:38.508Z,46.36
2018-09-11T06:46:09.103Z,46.00
2018-09-11T06:48:39.389Z,45.76
2018-09-11T06:51:10.235Z,45.64
2018-09-11T06:53:41.048Z,45.64
2018-09-11T06:56:11.419Z,45.31
2018-09-11T06:58:43.172Z,45.15
2018-09-11T07:01:13.766Z,45.04
2018-09-11T07:03:44.117Z,44.91
2018-09-11T07:06:14.328Z,44.28
2018-09-11T07:08:44.875Z,44.80
2018-09-11T07:11:15.404Z,44.78
2018-09-11T07:13:45.669Z,45.23
2018-09-11T07:16:15.996Z,44.36
2018-09-11T07:18:46.647Z,44.32
2018-09-11T07:21:17.295Z,44.16
2018-09-11T07:23:47.789Z,43.99
2018-09-11T07:26:18.538Z,44.57
2018-09-11T07:28:49.048Z,44.44
2018-09-11T07:31:19.695Z,45.31
2018-09-11T07:33:51.101Z,45.04
2018-09-11T07:36:22.835Z,44.23
2018-09-11T07:38:53.652Z,44.39
2018-09-11T07:41:24.171Z,44.23
2018-09-11T07:43:54.595Z,44.44
2018-09-11T07:46:25.104Z,44.28
2018-09-11T07:48:55.907Z,43.98
2018-09-11T07:51:26.524Z,43.17
2018-09-11T07:53:57.155Z,43.04
2018-09-11T07:56:27.723Z,42.98
2018-09-11T07:58:58.229Z,42.18
2018-09-11T08:01:28.892Z,42.53
2018-09-11T08:03:59.657Z,41.35
2018-09-11T08:06:29.874Z,40.88
2018-09-11T08:09:00.447Z,40.58
2018-09-11T08:11:31.010Z,40.40
2018-09-11T08:14:01.314Z,39.70
2018-09-11T08:16:31.633Z,39.87
2018-09-11T08:19:02.446Z,39.20
2018-09-11T08:21:32.968Z,39.75
2018-09-11T08:24:03.476Z,38.72
2018-09-11T08:26:34.176Z,38.26
2018-09-11T08:29:05.023Z,38.53
2018-09-11T08:31:35.587Z,37.82
2018-09-11T08:34:06.321Z,38.35
2018-09-11T08:36:36.784Z,38.25
2018-09-11T08:39:09.713Z,37.75
2018-09-11T08:41:40.364Z,38.13
2018-09-11T08:44:11.046Z,38.38
2018-09-11T08:46:41.297Z,37.99
2018-09-11T08:49:12.237Z,37.90
2018-09-11T08:51:43.032Z,37.42
2018-09-11T08:54:13.727Z,36.98
2018-09-11T08:56:44.288Z,35.70
2018-09-11T08:59:14.607Z,35.39
2018-09-11T09:01:45.108Z,35.06
2018-09-11T09:04:15.820Z,34.91
2018-09-11T09:06:46.335Z,34.62
2018-09-11T09:09:16.837Z,34.18
2018-09-11T09:11:47.982Z,35.42
2018-09-11T09:14:18.736Z,34.70
2018-09-11T09:16:49.304Z,33.79
2018-09-11T09:19:19.944Z,33.80
2018-09-11T09:21:51.437Z,34.30
2018-09-11T09:24:21.759Z,33.52
2018-09-11T09:26:52.628Z,32.43
2018-09-11T09:29:23.152Z,32.19
2018-09-11T09:31:54.878Z,29.85
2018-09-11T09:34:25.472Z,30.02
2018-09-11T09:36:57.248Z,29.28
2018-09-11T09:39:28.460Z,29.80
2018-09-11T09:41:59.174Z,28.86
2018-09-11T09:44:29.811Z,30.30
2018-09-11T09:47:00.212Z,29.05
2018-09-11T09:49:30.747Z,27.49
2018-09-11T09:52:01.237Z,22.79
2018-09-11T09:54:31.726Z,20.62
2018-09-11T09:57:02.109Z,20.67
2018-09-11T09:59:32.812Z,20.10
2018-09-11T10:02:05.002Z,20.67
2018-09-11T10:04:35.197Z,20.18
2018-09-11T10:07:05.807Z,18.30
2018-09-11T10:09:36.392Z,17.07
2018-09-11T10:12:06.888Z,17.55
2018-09-11T10:14:37.430Z,17.41
2018-09-11T10:17:08.624Z,19.62
2018-09-11T10:19:39.384Z,17.55
2018-09-11T10:22:09.976Z,17.56
2018-09-11T10:24:40.723Z,21.04
2018-09-11T10:27:12.050Z,22.25
2018-09-11T10:29:42.652Z,24.69
2018-09-11T10:32:13.150Z,23.88
2018-09-11T10:34:43.816Z,26.07
2018-09-11T10:37:14.339Z,26.86
2018-09-11T10:39:44.918Z,22.72
2018-09-11T10:42:15.739Z,24.03
2018-09-11T10:44:46.308Z,25.41
2018-09-11T10:47:17.225Z,26.37
2018-09-11T10:49:47.808Z,28.28
2018-09-11T10:52:18.548Z,30.24
2018-09-11T10:54:49.276Z,30.37
2018-09-11T10:57:19.492Z,31.03
2018-09-11T10:59:50.034Z,31.25
2018-09-11T11:02:20.272Z,31.76
2018-09-11T11:04:50.972Z,31.21
2018-09-11T11:07:21.493Z,30.89
2018-09-11T11:09:52.029Z,31.46
2018-09-11T11:12:22.626Z,30.67
2018-09-11T11:14:57.339Z,31.25
2018-09-11T11:17:27.964Z,31.33
2018-09-11T11:19:58.598Z,30.74
2018-09-11T11:22:29.292Z,31.14
2018-09-11T11:25:00.535Z,31.11
2018-09-11T11:27:30.780Z,30.87
2018-09-11T11:30:01.374Z,31.42
2018-09-11T11:32:32.433Z,30.66
2018-09-11T11:35:03.266Z,29.36
2018-09-11T11:37:34.213Z,29.19
2018-09-11T11:40:05.536Z,29.11
2018-09-11T11:42:36.051Z,29.12
2018-09-11T11:45:07.325Z,28.64
2018-09-11T11:47:37.863Z,29.12
2018-09-11T11:50:12.230Z,30.40
2018-09-11T11:52:42.788Z,30.34
2018-09-11T11:55:13.422Z,30.65
2018-09-11T11:57:44.655Z,28.77
2018-09-11T12:00:15.284Z,29.96
2018-09-11T12:02:45.879Z,28.88
2018-09-11T12:05:16.709Z,28.58
2018-09-11T12:07:47.135Z,28.66
2018-09-11T12:10:17.615Z,28.68
2018-09-11T12:12:48.135Z,28.12
2018-09-11T12:15:18.375Z,28.65
2018-09-11T12:17:48.661Z,28.52
2018-09-11T12:20:18.950Z,29.70
2018-09-11T12:22:49.237Z,29.76
2018-09-11T12:25:19.630Z,29.68
2018-09-11T12:27:50.638Z,30.57
2018-09-11T12:30:21.472Z,29.78
2018-09-11T12:32:51.997Z,29.81
2018-09-11T12:35:22.302Z,29.24
2018-09-11T12:37:54.575Z,29.56
2018-09-11T12:40:25.080Z,28.90
2018-09-11T12:42:56.144Z,29.53
2018-09-11T12:45:26.789Z,29.81
2018-09-11T12:47:57.511Z,29.80
2018-09-11T12:50:27.904Z,29.66
2018-09-11T12:52:58.513Z,30.14
2018-09-11T12:55:29.217Z,28.51
2018-09-11T12:58:01.308Z,30.05
2018-09-11T13:00:33.358Z,29.11
2018-09-11T13:03:03.932Z,28.96
2018-09-11T13:05:36.568Z,29.49
2018-09-11T13:08:08.732Z,30.08
2018-09-11T13:10:39.424Z,28.59
2018-09-11T13:13:09.920Z,28.90
2018-09-11T13:15:43.052Z,29.21
2018-09-11T13:18:15.334Z,29.82
2018-09-11T13:20:46.519Z,30.44
2018-09-11T13:23:17.737Z,30.30
2018-09-11T13:25:48.334Z,31.42
2018-09-11T13:28:19.323Z,31.77
2018-09-11T13:30:52.784Z,31.67
2018-09-11T13:33:23.368Z,32.04
2018-09-11T13:35:54.215Z,32.17
2018-09-11T13:38:24.750Z,31.34
2018-09-11T13:40:55.460Z,31.54
2018-09-11T13:43:25.948Z,31.30
2018-09-11T13:45:56.545Z,31.66
2018-09-11T13:48:27.184Z,31.27
2018-09-11T13:50:57.701Z,30.80
2018-09-11T13:53:28.303Z,31.17
2018-09-11T13:55:59.003Z,30.69
2018-09-11T13:58:29.670Z,31.36
2018-09-11T14:01:00.182Z,31.83
2018-09-11T14:03:30.546Z,32.38
2018-09-11T14:06:01.861Z,32.71
2018-09-11T14:08:32.519Z,32.71
2018-09-11T14:11:03.345Z,33.03
2018-09-11T14:13:35.124Z,32.93
2018-09-11T14:16:05.629Z,32.83
2018-09-11T14:18:36.238Z,34.05
2018-09-11T14:21:07.410Z,33.15
2018-09-11T14:23:37.960Z,33.92
2018-09-11T14:26:09.089Z,33.88
2018-09-11T14:28:39.869Z,33.92
2018-09-11T14:31:10.162Z,33.34
2018-09-11T14:33:40.729Z,33.85
2018-09-11T14:36:11.902Z,33.96
2018-09-11T14:38:42.487Z,34.72
2018-09-11T14:41:12.997Z,34.64
2018-09-11T14:43:44.408Z,35.10
2018-09-11T14:46:16.108Z,35.55
2018-09-11T14:48:46.698Z,35.27
2018-09-11T14:51:17.222Z,35.88
2018-09-11T14:53:47.803Z,35.23
2018-09-11T14:56:19.168Z,35.60
2018-09-11T14:58:50.033Z,35.93
2018-09-11T15:01:20.530Z,36.42
2018-09-11T15:03:51.245Z,36.18
2018-09-11T15:06:22.346Z,36.93
2018-09-11T15:08:53.485Z,36.97
2018-09-11T15:11:24.508Z,36.49
2018-09-11T15:13:55.503Z,37.05
2018-09-11T15:16:26.326Z,36.93
2018-09-11T15:18:57.732Z,36.54
2018-09-11T15:21:28.503Z,36.77
2018-09-11T15:23:59.009Z,36.33
2018-09-11T15:26:30.819Z,35.81
2018-09-11T15:29:01.909Z,36.00
2018-09-11T15:31:37.326Z,36.06
2018-09-11T15:34:07.846Z,36.92
2018-09-11T15:36:38.080Z,37.01
2018-09-11T15:39:11.034Z,37.29
2018-09-11T15:41:41.564Z,37.17
2018-09-11T15:44:12.060Z,36.95
2018-09-11T15:46:42.492Z,36.98
2018-09-11T15:49:17.257Z,36.34
2018-09-11T15:51:47.942Z,36.96
2018-09-11T15:54:21.580Z,36.37
2018-09-11T15:56:52.517Z,37.16
2018-09-11T15:59:23.805Z,36.95
2018-09-11T16:04:35.671Z,36.54
2018-09-11T16:07:06.028Z,38.07
2018-09-11T16:09:36.765Z,38.18
2018-09-11T16:12:07.483Z,38.46
2018-09-11T16:14:38.539Z,38.88
2018-09-11T16:17:10.797Z,38.56
2018-09-11T16:19:41.551Z,39.02
2018-09-11T16:22:12.214Z,39.31
2018-09-11T16:24:42.950Z,38.67
2018-09-11T16:27:13.560Z,38.34
2018-09-11T16:29:44.160Z,38.68
2018-09-11T16:32:15.125Z,38.45
2018-09-11T16:34:47.394Z,38.86
2018-09-11T16:37:18.014Z,39.68
2018-09-11T16:39:48.603Z,39.60
2018-09-11T16:42:19.209Z,39.32
2018-09-11T16:44:50.237Z,39.80
2018-09-11T16:47:20.862Z,39.60
2018-09-11T16:49:51.577Z,39.67
2018-09-11T16:52:21.864Z,39.72
2018-09-11T16:54:53.272Z,39.69
2018-09-11T16:57:23.949Z,40.00
2018-09-11T16:59:54.303Z,40.03
2018-09-11T17:02:24.960Z,40.04
2018-09-11T17:04:55.626Z,39.64
2018-09-11T17:07:25.981Z,39.81
2018-09-11T17:09:56.695Z,40.39
2018-09-11T17:12:27.201Z,39.73
2018-09-11T17:15:00.755Z,40.29
2018-09-11T17:17:34.781Z,39.63
2018-09-11T17:20:05.420Z,39.77
2018-09-11T17:22:36.726Z,39.64
2018-09-11T17:25:07.536Z,39.45
2018-09-11T17:27:38.499Z,38.79
2018-09-11T17:30:09.906Z,38.72
2018-09-11T17:32:40.125Z,38.95
2018-09-11T17:35:10.597Z,39.21
2018-09-11T17:37:41.293Z,39.16
2018-09-11T17:40:11.836Z,39.07
2018-09-11T17:42:42.329Z,39.18
2018-09-11T17:45:13.009Z,39.58
2018-09-11T17:47:43.819Z,39.75
2018-09-11T17:50:14.271Z,39.54
2018-09-11T17:52:44.657Z,40.14
2018-09-11T17:55:17.072Z,40.61
2018-09-11T17:57:47.688Z,39.60
2018-09-11T18:00:18.353Z,38.67
2018-09-11T18:02:49.133Z,38.24
2018-09-11T18:05:19.754Z,38.53
2018-09-11T18:07:50.278Z,39.00
2018-09-11T18:10:20.845Z,39.62
2018-09-11T18:12:51.117Z,39.66
2018-09-11T18:15:22.482Z,40.18
2018-09-11T18:17:53.353Z,40.32
2018-09-11T18:20:23.967Z,40.70
2018-09-11T18:22:54.688Z,40.98
2018-09-11T18:25:24.922Z,42.13
2018-09-11T18:27:55.453Z,42.16
2018-09-11T18:30:25.964Z,42.14
2018-09-11T18:32:56.508Z,41.65
2018-09-11T18:35:27.434Z,41.01
2018-09-11T18:37:58.189Z,41.16
2018-09-11T18:40:28.698Z,41.63
2018-09-11T18:42:59.171Z,41.84
2018-09-11T18:45:30.683Z,42.52
2018-09-11T18:48:02.180Z,42.72
2018-09-11T18:50:32.989Z,43.49
2018-09-11T18:53:03.601Z,43.62
2018-09-11T18:55:34.048Z,43.83
2018-09-11T18:58:04.625Z,44.30
2018-09-11T19:00:35.044Z,44.54
2018-09-11T19:03:06.244Z,44.95
2018-09-11T19:05:36.765Z,45.03
2018-09-11T19:08:08.767Z,44.77
2018-09-11T19:10:38.992Z,43.94
2018-09-11T19:13:11.575Z,42.43
2018-09-11T19:15:42.177Z,41.96
2018-09-11T19:18:13.173Z,43.69
2018-09-11T19:20:43.944Z,44.82
2018-09-11T19:23:14.454Z,45.28
2018-09-11T19:25:44.696Z,45.50
2018-09-11T19:28:15.579Z,46.12
2018-09-11T19:30:47.333Z,46.49
2018-09-11T19:33:18.437Z,47.14
2018-09-11T19:35:48.952Z,47.50
2018-09-11T19:38:19.530Z,47.15
2018-09-11T19:40:50.018Z,46.48
2018-09-11T19:43:20.536Z,46.34
2018-09-11T19:45:51.122Z,46.64
2018-09-11T19:48:22.002Z,46.56
2018-09-11T19:50:52.761Z,47.27
2018-09-11T19:53:23.350Z,46.93
2018-09-11T19:55:53.839Z,46.67
2018-09-11T19:58:24.039Z,45.59
2018-09-11T20:00:54.898Z,45.63
2018-09-11T20:03:25.717Z,45.48
2018-09-11T20:05:55.940Z,45.74
2018-09-11T20:08:26.476Z,45.78
2018-09-11T20:10:57.760Z,46.07
2018-09-11T20:13:28.315Z,45.27
2018-09-11T20:15:58.925Z,45.84
2018-09-11T20:18:29.804Z,45.90
2018-09-11T20:21:00.364Z,45.56
2018-09-11T20:23:38.017Z,45.44
2018-09-11T20:26:08.238Z,44.86
2018-09-11T20:28:40.475Z,45.50
2018-09-11T20:31:13.149Z,45.60
2018-09-11T20:33:43.659Z,45.81
2018-09-11T20:36:14.392Z,46.57
2018-09-11T20:38:46.270Z,47.02
2018-09-11T20:41:17.481Z,46.31
2018-09-11T20:43:56.722Z,47.47
2018-09-11T20:46:29.784Z,47.69
2018-09-11T20:49:00.625Z,48.09
2018-09-11T20:51:31.240Z,47.79
2018-09-11T20:54:05.809Z,47.20
2018-09-11T20:56:37.825Z,47.48
2018-09-11T20:59:10.242Z,48.08
2018-09-11T21:01:42.977Z,47.71
2018-09-11T21:04:15.655Z,48.05
2018-09-11T21:06:48.267Z,48.61
2018-09-11T21:09:18.840Z,48.98
2018-09-11T21:11:49.503Z,48.64
2018-09-11T21:14:19.745Z,48.12
2018-09-11T21:16:51.120Z,48.53
2018-09-11T21:19:21.666Z,47.34
2018-09-11T21:21:52.400Z,46.84
2018-09-11T21:24:22.930Z,45.89
2018-09-11T21:26:53.600Z,46.26
2018-09-11T21:29:24.971Z,47.75
2018-09-11T21:31:57.906Z,48.57
2018-09-11T21:34:30.923Z,49.21
2018-09-11T21:37:02.476Z,49.29
2018-09-11T21:39:33.266Z,49.69
2018-09-11T21:42:03.875Z,50.84
2018-09-11T21:44:34.539Z,51.05
2018-09-11T21:47:05.642Z,50.19
2018-09-11T21:49:36.144Z,49.39
2018-09-11T21:52:06.930Z,49.01
2018-09-11T21:54:37.881Z,47.85
2018-09-11T21:57:09.176Z,46.62
2018-09-11T21:59:40.595Z,47.89
2018-09-11T22:02:11.875Z,48.57
2018-09-11T22:04:42.152Z,50.32
2018-09-11T22:07:13.620Z,49.16
2018-09-11T22:09:45.383Z,49.14
2018-09-11T22:12:16.196Z,49.79
2018-09-11T22:14:46.841Z,49.58
2018-09-11T22:17:17.419Z,49.86
2018-09-11T22:19:47.956Z,49.73
2018-09-11T22:22:19.391Z,49.46
2018-09-11T22:24:49.670Z,50.07
2018-09-11T22:27:21.457Z,49.44
2018-09-11T22:29:53.233Z,49.85
2018-09-11T22:32:28.220Z,50.03
2018-09-11T22:34:59.643Z,50.00
2018-09-11T22:37:31.284Z,50.75
2018-09-11T22:40:01.550Z,49.91
2018-09-11T22:42:32.342Z,48.98
2018-09-11T22:45:05.357Z,49.85
2018-09-11T22:47:36.160Z,51.51
2018-09-11T22:50:06.813Z,52.61
2018-09-11T22:52:37.534Z,52.50
2018-09-11T22:55:10.032Z,54.08
2018-09-11T22:57:40.453Z,54.75
2018-09-11T23:00:10.676Z,55.94
2018-09-11T23:02:41.314Z,57.11
2018-09-11T23:05:13.012Z,57.54
2018-09-11T23:07:43.279Z,57.75
2018-09-11T23:10:13.800Z,57.66
2018-09-11T23:12:44.569Z,57.58
2018-09-11T23:15:15.311Z,57.85
2018-09-11T23:17:45.556Z,58.38
2018-09-11T23:20:16.153Z,58.27
2018-09-11T23:22:47.109Z,58.15
2018-09-11T23:25:17.348Z,58.78
2018-09-11T23:27:47.848Z,58.69
2018-09-11T23:30:18.539Z,59.02
2018-09-11T23:32:48.789Z,59.33
2018-09-11T23:35:19.056Z,59.92
2018-09-11T23:37:49.447Z,59.66
2018-09-11T23:40:20.304Z,56.83
2018-09-11T23:42:50.856Z,55.74
2018-09-11T23:45:21.520Z,54.37
2018-09-11T23:47:51.799Z,53.86
2018-09-11T23:50:22.236Z,53.24
2018-09-11T23:52:52.485Z,53.98
2018-09-11T23:55:22.701Z,56.00
2018-09-11T23:57:53.523Z,55.28
